sensor_id;sensor_type;location;lat;lon;timestamp;pressure;altitude;pressure_sealevel;temperature;humidity
42289;BME280;30230;47.520;19.016;2023-03-04T00:01:27;99129.66;;;3.90;60.36
42289;BME280;30230;47.520;19.016;2023-03-04T00:03:28;99128.31;;;3.86;59.71
42289;BME280;30230;47.520;19.016;2023-03-04T00:05:28;99135.31;;;3.79;60.24
42289;BME280;30230;47.520;19.016;2023-03-04T00:07:30;99128.31;;;3.78;60.22
42289;BME280;30230;47.520;19.016;2023-03-04T00:09:30;99135.16;;;3.80;60.08
42289;BME280;30230;47.520;19.016;2023-03-04T00:11:31;99121.41;;;3.59;62.84
42289;BME280;30230;47.520;19.016;2023-03-04T00:13:32;99130.72;;;3.55;62.54
42289;BME280;30230;47.520;19.016;2023-03-04T00:15:32;99130.22;;;3.51;61.13
42289;BME280;30230;47.520;19.016;2023-03-04T00:17:32;99119.34;;;3.45;60.94
42289;BME280;30230;47.520;19.016;2023-03-04T00:19:33;99124.50;;;3.38;60.82
42289;BME280;30230;47.520;19.016;2023-03-04T00:21:34;99131.31;;;3.32;61.72
42289;BME280;30230;47.520;19.016;2023-03-04T00:23:34;99127.19;;;3.38;60.50
42289;BME280;30230;47.520;19.016;2023-03-04T00:25:35;99121.47;;;3.33;61.38
42289;BME280;30230;47.520;19.016;2023-03-04T00:27:35;99124.69;;;3.36;60.15
42289;BME280;30230;47.520;19.016;2023-03-04T00:29:36;99115.72;;;3.54;59.69
42289;BME280;30230;47.520;19.016;2023-03-04T00:31:36;99122.19;;;3.51;59.46
42289;BME280;30230;47.520;19.016;2023-03-04T00:33:37;99111.81;;;3.40;59.00
42289;BME280;30230;47.520;19.016;2023-03-04T00:35:37;99112.31;;;3.35;60.41
42289;BME280;30230;47.520;19.016;2023-03-04T00:37:38;99121.44;;;3.25;60.28
42289;BME280;30230;47.520;19.016;2023-03-04T00:39:39;99127.59;;;3.17;60.97
42289;BME280;30230;47.520;19.016;2023-03-04T00:41:39;99123.56;;;3.13;60.58
42289;BME280;30230;47.520;19.016;2023-03-04T00:43:39;99122.53;;;3.06;61.28
42289;BME280;30230;47.520;19.016;2023-03-04T00:45:40;99121.47;;;2.99;61.61
42289;BME280;30230;47.520;19.016;2023-03-04T00:47:40;99115.41;;;2.88;60.40
42289;BME280;30230;47.520;19.016;2023-03-04T00:49:41;99112.16;;;3.03;58.08
42289;BME280;30230;47.520;19.016;2023-03-04T00:51:41;99107.13;;;2.92;58.92
42289;BME280;30230;47.520;19.016;2023-03-04T00:53:42;99114.81;;;2.95;58.84
42289;BME280;30230;47.520;19.016;2023-03-04T00:55:42;99108.13;;;2.99;59.45
42289;BME280;30230;47.520;19.016;2023-03-04T00:57:42;99112.97;;;2.95;59.42
42289;BME280;30230;47.520;19.016;2023-03-04T00:59:43;99113.13;;;2.94;58.60
42289;BME280;30230;47.520;19.016;2023-03-04T01:01:45;99097.09;;;2.85;59.30
42289;BME280;30230;47.520;19.016;2023-03-04T01:03:45;99100.78;;;2.93;59.26
42289;BME280;30230;47.520;19.016;2023-03-04T01:05:46;99103.09;;;2.87;59.04
42289;BME280;30230;47.520;19.016;2023-03-04T01:07:46;99094.06;;;2.88;59.22
42289;BME280;30230;47.520;19.016;2023-03-04T01:09:47;99101.25;;;2.88;57.96
42289;BME280;30230;47.520;19.016;2023-03-04T01:11:47;99084.75;;;2.84;58.74
42289;BME280;30230;47.520;19.016;2023-03-04T01:13:47;99087.25;;;2.86;58.15
42289;BME280;30230;47.520;19.016;2023-03-04T01:15:48;99088.06;;;2.86;58.33
42289;BME280;30230;47.520;19.016;2023-03-04T01:17:48;99081.06;;;2.85;58.87
42289;BME280;30230;47.520;19.016;2023-03-04T01:19:49;99086.44;;;2.94;57.37
42289;BME280;30230;47.520;19.016;2023-03-04T01:21:49;99085.59;;;2.93;56.20
42289;BME280;30230;47.520;19.016;2023-03-04T01:23:49;99079.16;;;3.04;52.45
42289;BME280;30230;47.520;19.016;2023-03-04T01:25:50;99072.84;;;3.13;52.86
42289;BME280;30230;47.520;19.016;2023-03-04T01:27:50;99067.81;;;3.10;52.64
42289;BME280;30230;47.520;19.016;2023-03-04T01:29:51;99067.22;;;3.16;52.67
42289;BME280;30230;47.520;19.016;2023-03-04T01:31:51;99067.34;;;3.06;52.76
42289;BME280;30230;47.520;19.016;2023-03-04T01:33:51;99071.72;;;3.16;53.48
42289;BME280;30230;47.520;19.016;2023-03-04T01:35:52;99065.81;;;3.04;54.53
42289;BME280;30230;47.520;19.016;2023-03-04T01:37:52;99064.25;;;2.85;53.89
42289;BME280;30230;47.520;19.016;2023-03-04T01:39:53;99067.56;;;2.87;54.59
42289;BME280;30230;47.520;19.016;2023-03-04T01:41:53;99066.44;;;2.90;51.98
42289;BME280;30230;47.520;19.016;2023-03-04T01:43:55;99056.97;;;3.03;52.21
42289;BME280;30230;47.520;19.016;2023-03-04T01:46:00;99050.84;;;3.11;50.14
42289;BME280;30230;47.520;19.016;2023-03-04T01:48:00;99063.53;;;3.17;51.35
42289;BME280;30230;47.520;19.016;2023-03-04T01:50:06;99048.75;;;3.31;49.68
42289;BME280;30230;47.520;19.016;2023-03-04T01:52:13;99053.56;;;3.35;48.65
42289;BME280;30230;47.520;19.016;2023-03-04T01:54:15;99041.34;;;3.25;49.82
42289;BME280;30230;47.520;19.016;2023-03-04T01:56:22;99043.06;;;3.34;48.47
42289;BME280;30230;47.520;19.016;2023-03-04T01:58:28;99031.25;;;3.36;47.57
42289;BME280;30230;47.520;19.016;2023-03-04T02:00:32;99034.44;;;3.48;47.20
42289;BME280;30230;47.520;19.016;2023-03-04T02:02:32;99028.41;;;3.46;47.55
42289;BME280;30230;47.520;19.016;2023-03-04T02:04:33;99033.41;;;3.49;47.42
42289;BME280;30230;47.520;19.016;2023-03-04T02:06:36;99035.94;;;3.59;47.35
42289;BME280;30230;47.520;19.016;2023-03-04T02:08:37;99026.94;;;3.52;46.54
42289;BME280;30230;47.520;19.016;2023-03-04T02:10:39;99028.59;;;3.53;46.09
42289;BME280;30230;47.520;19.016;2023-03-04T02:12:41;99027.91;;;3.51;46.59
42289;BME280;30230;47.520;19.016;2023-03-04T02:14:41;99027.41;;;3.47;47.05
42289;BME280;30230;47.520;19.016;2023-03-04T02:16:42;99023.91;;;3.55;46.46
42289;BME280;30230;47.520;19.016;2023-03-04T02:18:43;98997.19;;;3.38;47.39
42289;BME280;30230;47.520;19.016;2023-03-04T02:21:04;99024.75;;;3.47;46.73
42289;BME280;30230;47.520;19.016;2023-03-04T02:25:30;99011.72;;;3.44;46.31
42289;BME280;30230;47.520;19.016;2023-03-04T02:27:32;99009.56;;;3.48;46.89
42289;BME280;30230;47.520;19.016;2023-03-04T02:29:33;99015.56;;;3.50;46.74
42289;BME280;30230;47.520;19.016;2023-03-04T02:32:11;99004.22;;;3.64;45.64
42289;BME280;30230;47.520;19.016;2023-03-04T02:34:10;99004.22;;;3.56;45.29
42289;BME280;30230;47.520;19.016;2023-03-04T02:36:11;99005.91;;;3.73;44.94
42289;BME280;30230;47.520;19.016;2023-03-04T02:38:12;99001.09;;;3.93;44.39
42289;BME280;30230;47.520;19.016;2023-03-04T02:40:32;99007.22;;;3.77;44.98
42289;BME280;30230;47.520;19.016;2023-03-04T02:42:32;98993.56;;;3.64;45.04
42289;BME280;30230;47.520;19.016;2023-03-04T02:44:35;98997.72;;;3.66;45.46
42289;BME280;30230;47.520;19.016;2023-03-04T02:46:36;98993.22;;;3.67;45.11
42289;BME280;30230;47.520;19.016;2023-03-04T02:48:37;98992.69;;;3.72;45.09
42289;BME280;30230;47.520;19.016;2023-03-04T02:50:43;98982.38;;;3.69;45.73
42289;BME280;30230;47.520;19.016;2023-03-04T02:52:44;98987.53;;;3.54;45.62
42289;BME280;30230;47.520;19.016;2023-03-04T02:54:45;98975.38;;;3.68;45.33
42289;BME280;30230;47.520;19.016;2023-03-04T02:56:47;98981.53;;;3.76;45.44
42289;BME280;30230;47.520;19.016;2023-03-04T02:58:48;98985.03;;;3.60;45.63
42289;BME280;30230;47.520;19.016;2023-03-04T03:00:48;98973.19;;;3.63;45.63
42289;BME280;30230;47.520;19.016;2023-03-04T03:02:49;98955.97;;;3.41;45.95
42289;BME280;30230;47.520;19.016;2023-03-04T03:04:49;98983.53;;;3.58;45.85
42289;BME280;30230;47.520;19.016;2023-03-04T03:06:50;98986.53;;;3.55;46.69
42289;BME280;30230;47.520;19.016;2023-03-04T03:08:50;98974.19;;;3.54;45.97
42289;BME280;30230;47.520;19.016;2023-03-04T03:10:50;98981.19;;;3.55;46.40
42289;BME280;30230;47.520;19.016;2023-03-04T03:12:51;98978.69;;;3.61;46.52
42289;BME280;30230;47.520;19.016;2023-03-04T03:14:51;98968.16;;;3.44;46.77
42289;BME280;30230;47.520;19.016;2023-03-04T03:16:52;98976.53;;;3.57;46.70
42289;BME280;30230;47.520;19.016;2023-03-04T03:18:52;98976.50;;;3.49;47.16
42289;BME280;30230;47.520;19.016;2023-03-04T03:20:53;98969.97;;;3.35;47.53
42289;BME280;30230;47.520;19.016;2023-03-04T03:22:53;98964.00;;;3.49;47.43
42289;BME280;30230;47.520;19.016;2023-03-04T03:24:53;98950.63;;;3.33;47.30
42289;BME280;30230;47.520;19.016;2023-03-04T03:26:54;98964.63;;;3.35;47.30
42289;BME280;30230;47.520;19.016;2023-03-04T03:28:54;98961.47;;;3.39;47.77
42289;BME280;30230;47.520;19.016;2023-03-04T03:30:56;98951.28;;;3.19;48.12
42289;BME280;30230;47.520;19.016;2023-03-04T03:32:56;98947.81;;;3.26;48.08
42289;BME280;30230;47.520;19.016;2023-03-04T03:34:57;98958.63;;;3.25;48.69
42289;BME280;30230;47.520;19.016;2023-03-04T03:36:57;98953.75;;;3.04;49.59
42289;BME280;30230;47.520;19.016;2023-03-04T03:38:57;98955.75;;;3.10;49.81
42289;BME280;30230;47.520;19.016;2023-03-04T03:40:58;98946.91;;;3.09;49.44
42289;BME280;30230;47.520;19.016;2023-03-04T03:42:58;98949.44;;;3.11;49.00
42289;BME280;30230;47.520;19.016;2023-03-04T03:44:59;98947.88;;;2.92;50.24
42289;BME280;30230;47.520;19.016;2023-03-04T03:46:59;98950.72;;;2.99;49.89
42289;BME280;30230;47.520;19.016;2023-03-04T03:49:00;98944.34;;;2.83;51.27
42289;BME280;30230;47.520;19.016;2023-03-04T03:51:00;98955.00;;;2.83;51.69
42289;BME280;30230;47.520;19.016;2023-03-04T03:53:01;98957.69;;;2.83;51.31
42289;BME280;30230;47.520;19.016;2023-03-04T03:55:03;98947.72;;;2.94;51.04
42289;BME280;30230;47.520;19.016;2023-03-04T03:57:03;98950.41;;;3.02;51.08
42289;BME280;30230;47.520;19.016;2023-03-04T03:59:03;98955.88;;;2.92;51.27
42289;BME280;30230;47.520;19.016;2023-03-04T04:01:04;98955.06;;;2.92;50.98
42289;BME280;30230;47.520;19.016;2023-03-04T04:03:04;98944.91;;;3.03;51.45
42289;BME280;30230;47.520;19.016;2023-03-04T04:05:07;98949.19;;;2.88;51.82
42289;BME280;30230;47.520;19.016;2023-03-04T04:07:07;98921.19;;;2.84;51.80
42289;BME280;30230;47.520;19.016;2023-03-04T04:09:08;98935.72;;;2.98;51.79
42289;BME280;30230;47.520;19.016;2023-03-04T04:11:09;98939.88;;;2.92;52.72
42289;BME280;30230;47.520;19.016;2023-03-04T04:13:10;98943.84;;;2.80;53.07
42289;BME280;30230;47.520;19.016;2023-03-04T04:15:11;98950.09;;;2.63;53.25
42289;BME280;30230;47.520;19.016;2023-03-04T04:17:13;98951.75;;;2.55;54.15
42289;BME280;30230;47.520;19.016;2023-03-04T04:19:16;98953.13;;;2.59;54.33
42289;BME280;30230;47.520;19.016;2023-03-04T04:21:17;98951.03;;;2.45;54.37
42289;BME280;30230;47.520;19.016;2023-03-04T04:23:17;98952.53;;;2.48;54.79
42289;BME280;30230;47.520;19.016;2023-03-04T04:25:18;98949.09;;;2.64;54.30
42289;BME280;30230;47.520;19.016;2023-03-04T04:27:18;98954.84;;;2.43;54.97
42289;BME280;30230;47.520;19.016;2023-03-04T04:29:19;98944.00;;;2.36;55.56
42289;BME280;30230;47.520;19.016;2023-03-04T04:31:20;98959.25;;;2.18;56.12
42289;BME280;30230;47.520;19.016;2023-03-04T04:33:20;98953.84;;;2.09;56.66
42289;BME280;30230;47.520;19.016;2023-03-04T04:35:21;98960.53;;;2.14;57.29
42289;BME280;30230;47.520;19.016;2023-03-04T04:37:21;98956.63;;;2.00;58.19
42289;BME280;30230;47.520;19.016;2023-03-04T04:39:21;98951.00;;;2.03;57.80
42289;BME280;30230;47.520;19.016;2023-03-04T04:41:25;98953.59;;;1.95;58.44
42289;BME280;30230;47.520;19.016;2023-03-04T04:43:26;98948.25;;;2.21;58.62
42289;BME280;30230;47.520;19.016;2023-03-04T04:45:26;98940.53;;;2.09;58.24
42289;BME280;30230;47.520;19.016;2023-03-04T04:47:27;98941.78;;;2.23;58.60
42289;BME280;30230;47.520;19.016;2023-03-04T04:49:27;98939.69;;;2.09;59.48
42289;BME280;30230;47.520;19.016;2023-03-04T04:51:28;98942.91;;;2.13;59.85
42289;BME280;30230;47.520;19.016;2023-03-04T04:53:28;98950.78;;;2.22;59.99
42289;BME280;30230;47.520;19.016;2023-03-04T04:55:29;98940.44;;;2.27;60.37
42289;BME280;30230;47.520;19.016;2023-03-04T04:57:29;98949.91;;;2.22;60.55
42289;BME280;30230;47.520;19.016;2023-03-04T04:59:30;98933.44;;;2.26;60.39
42289;BME280;30230;47.520;19.016;2023-03-04T05:01:30;98942.16;;;2.28;60.25
42289;BME280;30230;47.520;19.016;2023-03-04T05:03:35;98932.19;;;2.39;60.21
42289;BME280;30230;47.520;19.016;2023-03-04T05:05:36;98926.94;;;2.21;61.48
42289;BME280;30230;47.520;19.016;2023-03-04T05:07:36;98926.78;;;2.22;60.97
42289;BME280;30230;47.520;19.016;2023-03-04T05:09:37;98939.97;;;2.32;60.91
42289;BME280;30230;47.520;19.016;2023-03-04T05:11:37;98933.56;;;2.51;61.13
42289;BME280;30230;47.520;19.016;2023-03-04T05:13:38;98935.81;;;2.29;61.00
42289;BME280;30230;47.520;19.016;2023-03-04T05:15:38;98945.44;;;2.22;62.31
42289;BME280;30230;47.520;19.016;2023-03-04T05:17:38;98948.31;;;2.03;62.33
42289;BME280;30230;47.520;19.016;2023-03-04T05:19:39;98917.88;;;1.79;62.63
42289;BME280;30230;47.520;19.016;2023-03-04T05:21:39;98934.31;;;2.01;62.67
42289;BME280;30230;47.520;19.016;2023-03-04T05:23:41;98944.00;;;2.02;62.83
42289;BME280;30230;47.520;19.016;2023-03-04T05:25:42;98940.84;;;2.06;62.24
42289;BME280;30230;47.520;19.016;2023-03-04T05:27:42;98950.06;;;2.12;61.98
42289;BME280;30230;47.520;19.016;2023-03-04T05:29:43;98937.31;;;1.98;62.82
42289;BME280;30230;47.520;19.016;2023-03-04T05:31:45;98952.03;;;2.10;62.53
42289;BME280;30230;47.520;19.016;2023-03-04T05:33:46;98960.19;;;2.08;63.00
42289;BME280;30230;47.520;19.016;2023-03-04T05:35:48;98957.72;;;2.15;62.57
42289;BME280;30230;47.520;19.016;2023-03-04T05:37:48;98948.69;;;2.08;63.04
42289;BME280;30230;47.520;19.016;2023-03-04T05:39:49;98962.38;;;2.13;63.33
42289;BME280;30230;47.520;19.016;2023-03-04T05:41:49;98958.53;;;2.16;63.35
42289;BME280;30230;47.520;19.016;2023-03-04T05:43:50;98958.28;;;2.27;62.92
42289;BME280;30230;47.520;19.016;2023-03-04T05:45:50;98958.06;;;2.20;62.92
42289;BME280;30230;47.520;19.016;2023-03-04T05:47:51;98956.25;;;2.21;63.50
42289;BME280;30230;47.520;19.016;2023-03-04T05:49:52;98954.41;;;2.21;63.62
42289;BME280;30230;47.520;19.016;2023-03-04T05:51:53;98969.75;;;2.27;63.57
42289;BME280;30230;47.520;19.016;2023-03-04T05:53:54;98963.72;;;2.43;63.07
42289;BME280;30230;47.520;19.016;2023-03-04T05:55:54;98961.72;;;2.45;63.38
42289;BME280;30230;47.520;19.016;2023-03-04T05:57:55;98964.78;;;2.32;63.83
42289;BME280;30230;47.520;19.016;2023-03-04T05:59:56;98960.47;;;2.31;63.56
42289;BME280;30230;47.520;19.016;2023-03-04T06:01:56;98965.97;;;2.30;63.70
42289;BME280;30230;47.520;19.016;2023-03-04T06:03:57;98963.28;;;2.30;63.62
42289;BME280;30230;47.520;19.016;2023-03-04T06:05:57;98972.44;;;2.27;64.23
42289;BME280;30230;47.520;19.016;2023-03-04T06:07:58;98976.69;;;2.38;64.58
42289;BME280;30230;47.520;19.016;2023-03-04T06:09:58;98978.13;;;2.32;64.64
42289;BME280;30230;47.520;19.016;2023-03-04T06:11:59;98974.84;;;2.39;64.71
42289;BME280;30230;47.520;19.016;2023-03-04T06:13:59;98987.84;;;2.42;64.41
42289;BME280;30230;47.520;19.016;2023-03-04T06:16:00;98989.38;;;2.44;63.78
42289;BME280;30230;47.520;19.016;2023-03-04T06:18:01;98996.56;;;2.52;64.20
42289;BME280;30230;47.520;19.016;2023-03-04T06:20:02;98991.28;;;2.60;63.96
42289;BME280;30230;47.520;19.016;2023-03-04T06:22:04;99000.53;;;2.48;64.61
42289;BME280;30230;47.520;19.016;2023-03-04T06:24:04;98997.72;;;2.49;64.29
42289;BME280;30230;47.520;19.016;2023-03-04T06:26:05;99000.94;;;2.61;64.30
42289;BME280;30230;47.520;19.016;2023-03-04T06:28:08;99010.59;;;2.62;64.45
42289;BME280;30230;47.520;19.016;2023-03-04T06:30:09;99003.31;;;2.72;63.89
42289;BME280;30230;47.520;19.016;2023-03-04T06:32:10;99006.44;;;2.59;63.87
42289;BME280;30230;47.520;19.016;2023-03-04T06:34:10;99001.81;;;2.70;63.71
42289;BME280;30230;47.520;19.016;2023-03-04T06:36:11;99004.78;;;2.67;64.07
42289;BME280;30230;47.520;19.016;2023-03-04T06:38:11;99004.56;;;2.86;63.13
42289;BME280;30230;47.520;19.016;2023-03-04T06:40:12;99009.97;;;2.68;63.41
42289;BME280;30230;47.520;19.016;2023-03-04T06:42:12;99014.19;;;2.79;64.01
42289;BME280;30230;47.520;19.016;2023-03-04T06:44:13;99009.72;;;2.87;63.02
42289;BME280;30230;47.520;19.016;2023-03-04T06:46:13;99005.03;;;2.81;63.23
42289;BME280;30230;47.520;19.016;2023-03-04T06:48:13;99016.28;;;2.59;64.07
42289;BME280;30230;47.520;19.016;2023-03-04T06:50:14;99018.50;;;2.72;64.34
42289;BME280;30230;47.520;19.016;2023-03-04T06:52:14;99011.84;;;2.76;64.07
42289;BME280;30230;47.520;19.016;2023-03-04T06:54:15;99020.03;;;2.82;64.32
42289;BME280;30230;47.520;19.016;2023-03-04T06:56:15;99016.22;;;2.85;63.45
42289;BME280;30230;47.520;19.016;2023-03-04T06:58:16;99020.38;;;2.87;63.56
42289;BME280;30230;47.520;19.016;2023-03-04T07:00:17;99009.78;;;3.04;64.17
42289;BME280;30230;47.520;19.016;2023-03-04T07:02:18;99008.84;;;3.21;63.52
42289;BME280;30230;47.520;19.016;2023-03-04T07:04:19;99007.50;;;3.25;62.70
42289;BME280;30230;47.520;19.016;2023-03-04T07:06:22;99006.88;;;3.39;62.63
42289;BME280;30230;47.520;19.016;2023-03-04T07:08:23;99003.25;;;3.57;61.36
42289;BME280;30230;47.520;19.016;2023-03-04T07:10:23;99003.56;;;4.03;59.86
42289;BME280;30230;47.520;19.016;2023-03-04T07:12:23;99004.53;;;4.34;59.08
42289;BME280;30230;47.520;19.016;2023-03-04T07:14:24;99008.00;;;4.43;58.83
42289;BME280;30230;47.520;19.016;2023-03-04T07:16:25;98999.75;;;4.69;57.57
42289;BME280;30230;47.520;19.016;2023-03-04T07:18:25;99001.00;;;4.89;56.83
42289;BME280;30230;47.520;19.016;2023-03-04T07:20:25;99001.72;;;4.83;56.68
42289;BME280;30230;47.520;19.016;2023-03-04T07:22:26;98986.03;;;4.72;56.86
42289;BME280;30230;47.520;19.016;2023-03-04T07:24:26;99000.69;;;4.84;57.45
42289;BME280;30230;47.520;19.016;2023-03-04T07:26:27;99003.44;;;4.68;55.48
42289;BME280;30230;47.520;19.016;2023-03-04T07:28:27;98995.69;;;4.81;56.24
42289;BME280;30230;47.520;19.016;2023-03-04T07:30:28;99001.69;;;4.91;53.82
42289;BME280;30230;47.520;19.016;2023-03-04T07:32:28;98995.84;;;5.19;53.34
42289;BME280;30230;47.520;19.016;2023-03-04T07:34:29;98994.53;;;5.15;52.36
42289;BME280;30230;47.520;19.016;2023-03-04T07:36:30;98986.28;;;5.25;52.81
42289;BME280;30230;47.520;19.016;2023-03-04T07:38:31;98990.91;;;5.08;52.44
42289;BME280;30230;47.520;19.016;2023-03-04T07:40:31;98998.19;;;5.22;52.89
42289;BME280;30230;47.520;19.016;2023-03-04T07:42:31;98995.53;;;5.45;53.18
42289;BME280;30230;47.520;19.016;2023-03-04T07:44:32;98996.53;;;5.44;52.67
42289;BME280;30230;47.520;19.016;2023-03-04T07:46:32;98982.06;;;5.30;51.73
42289;BME280;30230;47.520;19.016;2023-03-04T07:48:33;98983.25;;;5.28;52.27
42289;BME280;30230;47.520;19.016;2023-03-04T07:50:34;98978.44;;;5.23;52.03
42289;BME280;30230;47.520;19.016;2023-03-04T07:52:37;98977.22;;;5.26;52.02
42289;BME280;30230;47.520;19.016;2023-03-04T07:54:38;98979.38;;;5.30;51.02
42289;BME280;30230;47.520;19.016;2023-03-04T07:56:38;98984.78;;;5.53;50.86
42289;BME280;30230;47.520;19.016;2023-03-04T07:58:39;98977.72;;;5.75;49.65
42289;BME280;30230;47.520;19.016;2023-03-04T08:00:40;98985.69;;;5.83;48.95
42289;BME280;30230;47.520;19.016;2023-03-04T08:02:41;98980.31;;;5.83;48.60
42289;BME280;30230;47.520;19.016;2023-03-04T08:04:41;98984.22;;;5.81;48.56
42289;BME280;30230;47.520;19.016;2023-03-04T08:06:42;98984.13;;;5.89;47.63
42289;BME280;30230;47.520;19.016;2023-03-04T08:08:42;98985.69;;;5.83;48.35
42289;BME280;30230;47.520;19.016;2023-03-04T08:10:44;98984.47;;;5.94;46.32
42289;BME280;30230;47.520;19.016;2023-03-04T08:12:44;98981.06;;;6.00;46.84
42289;BME280;30230;47.520;19.016;2023-03-04T08:14:45;98990.88;;;6.08;46.86
42289;BME280;30230;47.520;19.016;2023-03-04T08:16:45;98979.13;;;6.09;46.44
42289;BME280;30230;47.520;19.016;2023-03-04T08:18:48;98985.31;;;6.09;46.72
42289;BME280;30230;47.520;19.016;2023-03-04T08:20:49;98983.50;;;6.24;46.14
42289;BME280;30230;47.520;19.016;2023-03-04T08:22:50;98990.47;;;6.48;45.75
42289;BME280;30230;47.520;19.016;2023-03-04T08:24:50;98995.75;;;6.71;45.87
42289;BME280;30230;47.520;19.016;2023-03-04T08:26:51;98980.44;;;7.01;45.73
42289;BME280;30230;47.520;19.016;2023-03-04T08:28:53;98980.56;;;6.93;44.65
42289;BME280;30230;47.520;19.016;2023-03-04T08:30:53;98991.47;;;6.92;45.92
42289;BME280;30230;47.520;19.016;2023-03-04T08:32:54;98988.69;;;7.00;45.88
42289;BME280;30230;47.520;19.016;2023-03-04T08:34:54;98985.47;;;7.04;45.16
42289;BME280;30230;47.520;19.016;2023-03-04T08:36:56;98997.31;;;6.95;45.25
42289;BME280;30230;47.520;19.016;2023-03-04T08:38:56;98986.22;;;6.98;45.65
42289;BME280;30230;47.520;19.016;2023-03-04T08:40:56;98983.03;;;7.10;45.83
42289;BME280;30230;47.520;19.016;2023-03-04T08:42:57;98978.16;;;6.98;46.42
42289;BME280;30230;47.520;19.016;2023-03-04T08:44:57;98984.91;;;6.94;46.13
42289;BME280;30230;47.520;19.016;2023-03-04T08:46:58;98969.84;;;6.93;46.33
42289;BME280;30230;47.520;19.016;2023-03-04T08:48:58;98982.88;;;6.96;46.99
42289;BME280;30230;47.520;19.016;2023-03-04T08:50:59;98962.59;;;7.09;46.55
42289;BME280;30230;47.520;19.016;2023-03-04T08:52:59;98963.38;;;7.24;46.33
42289;BME280;30230;47.520;19.016;2023-03-04T08:55:00;98964.84;;;7.26;45.89
42289;BME280;30230;47.520;19.016;2023-03-04T08:57:01;98966.31;;;7.29;45.94
42289;BME280;30230;47.520;19.016;2023-03-04T08:59:02;98971.06;;;7.12;46.22
42289;BME280;30230;47.520;19.016;2023-03-04T09:01:04;98960.97;;;7.29;46.50
42289;BME280;30230;47.520;19.016;2023-03-04T09:03:07;98956.31;;;7.23;46.92
42289;BME280;30230;47.520;19.016;2023-03-04T09:05:08;98960.00;;;7.00;47.31
42289;BME280;30230;47.520;19.016;2023-03-04T09:07:08;98955.69;;;7.21;47.12
42289;BME280;30230;47.520;19.016;2023-03-04T09:09:09;98950.31;;;7.21;47.18
42289;BME280;30230;47.520;19.016;2023-03-04T09:11:10;98962.44;;;7.53;47.66
42289;BME280;30230;47.520;19.016;2023-03-04T09:13:11;98945.78;;;7.64;46.06
42289;BME280;30230;47.520;19.016;2023-03-04T09:15:14;98948.59;;;7.77;46.25
42289;BME280;30230;47.520;19.016;2023-03-04T09:17:14;98952.00;;;7.65;46.10
42289;BME280;30230;47.520;19.016;2023-03-04T09:19:15;98953.47;;;7.67;46.54
42289;BME280;30230;47.520;19.016;2023-03-04T09:21:15;98944.84;;;7.72;47.23
42289;BME280;30230;47.520;19.016;2023-03-04T09:23:17;98946.53;;;7.79;46.70
42289;BME280;30230;47.520;19.016;2023-03-04T09:25:17;98936.69;;;7.87;46.54
42289;BME280;30230;47.520;19.016;2023-03-04T09:27:18;98948.00;;;8.03;46.53
42289;BME280;30230;47.520;19.016;2023-03-04T09:29:18;98945.00;;;8.20;46.26
42289;BME280;30230;47.520;19.016;2023-03-04T09:31:20;98941.97;;;8.29;46.18
42289;BME280;30230;47.520;19.016;2023-03-04T09:33:20;98953.03;;;8.41;45.67
42289;BME280;30230;47.520;19.016;2023-03-04T09:35:22;98945.63;;;8.43;45.41
42289;BME280;30230;47.520;19.016;2023-03-04T09:37:22;98939.94;;;8.66;45.07
42289;BME280;30230;47.520;19.016;2023-03-04T09:39:23;98933.88;;;8.57;45.18
42289;BME280;30230;47.520;19.016;2023-03-04T09:41:28;98943.75;;;8.44;45.26
42289;BME280;30230;47.520;19.016;2023-03-04T09:43:32;98942.72;;;8.45;44.97
42289;BME280;30230;47.520;19.016;2023-03-04T09:45:47;98945.84;;;8.48;45.11
42289;BME280;30230;47.520;19.016;2023-03-04T09:47:52;98937.00;;;8.54;44.98
42289;BME280;30230;47.520;19.016;2023-03-04T09:49:59;98931.41;;;8.63;45.02
42289;BME280;30230;47.520;19.016;2023-03-04T09:56:35;98935.34;;;9.01;44.44
42289;BME280;30230;47.520;19.016;2023-03-04T09:59:14;98934.97;;;9.11;44.29
42289;BME280;30230;47.520;19.016;2023-03-04T10:01:54;98937.59;;;9.04;44.18
42289;BME280;30230;47.520;19.016;2023-03-04T10:06:17;98909.66;;;9.12;44.09
42289;BME280;30230;47.520;19.016;2023-03-04T10:10:29;98914.91;;;9.40;43.68
42289;BME280;30230;47.520;19.016;2023-03-04T10:12:33;98907.25;;;9.50;43.69
42289;BME280;30230;47.520;19.016;2023-03-04T10:14:51;98925.13;;;9.51;44.93
42289;BME280;30230;47.520;19.016;2023-03-04T10:17:04;98905.00;;;9.74;46.77
42289;BME280;30230;47.520;19.016;2023-03-04T10:21:43;98910.13;;;10.55;43.67
42289;BME280;30230;47.520;19.016;2023-03-04T10:23:42;98897.72;;;10.21;42.51
42289;BME280;30230;47.520;19.016;2023-03-04T10:25:44;98896.88;;;10.07;43.56
42289;BME280;30230;47.520;19.016;2023-03-04T10:27:53;98895.84;;;10.01;43.36
42289;BME280;30230;47.520;19.016;2023-03-04T10:29:55;98909.34;;;10.14;43.78
42289;BME280;30230;47.520;19.016;2023-03-04T10:31:58;98883.19;;;10.35;42.45
42289;BME280;30230;47.520;19.016;2023-03-04T10:33:58;98904.25;;;10.71;41.60
42289;BME280;30230;47.520;19.016;2023-03-04T10:38:19;98891.09;;;10.88;40.71
42289;BME280;30230;47.520;19.016;2023-03-04T10:40:23;98899.53;;;10.60;40.84
42289;BME280;30230;47.520;19.016;2023-03-04T10:42:27;98894.06;;;10.73;40.47
42289;BME280;30230;47.520;19.016;2023-03-04T10:44:30;98893.41;;;10.78;40.62
42289;BME280;30230;47.520;19.016;2023-03-04T10:46:31;98895.94;;;10.73;40.61
42289;BME280;30230;47.520;19.016;2023-03-04T10:48:31;98890.56;;;10.66;40.08
42289;BME280;30230;47.520;19.016;2023-03-04T10:50:32;98883.66;;;10.77;39.76
42289;BME280;30230;47.520;19.016;2023-03-04T10:52:40;98883.25;;;10.73;38.68
42289;BME280;30230;47.520;19.016;2023-03-04T10:54:51;98876.47;;;10.57;39.14
42289;BME280;30230;47.520;19.016;2023-03-04T10:57:00;98889.28;;;10.68;39.05
42289;BME280;30230;47.520;19.016;2023-03-04T10:59:39;98875.94;;;10.87;38.59
42289;BME280;30230;47.520;19.016;2023-03-04T11:01:41;98869.66;;;10.93;37.76